sensor_id;sensor_type;location;lat;lon;timestamp;temperature;humidity
19152;DHT22;9708;53.114;9.388;2022-10-31T03:43:48;11.30;99.90
19152;DHT22;9708;53.114;9.388;2022-10-31T03:46:18;11.40;99.90
19152;DHT22;9708;53.114;9.388;2022-10-31T03:48:45;11.50;99.90
19152;DHT22;9708;53.114;9.388;2022-10-31T03:51:16;11.60;99.90
19152;DHT22;9708;53.114;9.388;2022-10-31T03:53:52;11.60;99.90
19152;DHT22;9708;53.114;9.388;2022-10-31T03:56:22;11.60;99.90
19152;DHT22;9708;53.114;9.388;2022-10-31T03:58:57;11.60;99.90
19152;DHT22;9708;53.114;9.388;2022-10-31T04:01:28;11.60;99.90
19152;DHT22;9708;53.114;9.388;2022-10-31T04:03:56;11.50;99.90
19152;DHT22;9708;53.114;9.388;2022-10-31T04:06:24;11.40;99.90
19152;DHT22;9708;53.114;9.388;2022-10-31T04:08:54;11.30;99.90
19152;DHT22;9708;53.114;9.388;2022-10-31T04:11:25;11.20;99.90
19152;DHT22;9708;53.114;9.388;2022-10-31T04:13:56;11.10;99.90
19152;DHT22;9708;53.114;9.388;2022-10-31T04:16:25;11.10;99.90
19152;DHT22;9708;53.114;9.388;2022-10-31T04:18:52;11.00;99.90
19152;DHT22;9708;53.114;9.388;2022-10-31T04:21:19;11.00;99.90
19152;DHT22;9708;53.114;9.388;2022-10-31T04:23:46;11.00;99.90
19152;DHT22;9708;53.114;9.388;2022-10-31T04:26:13;10.90;99.90
19152;DHT22;9708;53.114;9.388;2022-10-31T04:28:39;10.80;99.90
19152;DHT22;9708;53.114;9.388;2022-10-31T04:31:09;10.80;99.90
19152;DHT22;9708;53.114;9.388;2022-10-31T04:33:36;10.80;99.90
19152;DHT22;9708;53.114;9.388;2022-10-31T04:36:03;10.80;99.90
19152;DHT22;9708;53.114;9.388;2022-10-31T04:38:31;10.80;99.90
19152;DHT22;9708;53.114;9.388;2022-10-31T04:40:57;10.80;99.90
19152;DHT22;9708;53.114;9.388;2022-10-31T04:43:24;10.80;99.90
19152;DHT22;9708;53.114;9.388;2022-10-31T04:45:51;10.80;99.90
19152;DHT22;9708;53.114;9.388;2022-10-31T04:48:19;10.80;99.90
19152;DHT22;9708;53.114;9.388;2022-10-31T04:50:46;10.90;99.90
19152;DHT22;9708;53.114;9.388;2022-10-31T04:53:12;11.00;99.90
19152;DHT22;9708;53.114;9.388;2022-10-31T04:55:39;11.10;99.90
19152;DHT22;9708;53.114;9.388;2022-10-31T04:58:06;11.10;99.90
19152;DHT22;9708;53.114;9.388;2022-10-31T05:00:32;11.20;99.90
19152;DHT22;9708;53.114;9.388;2022-10-31T05:02:59;11.20;99.90
19152;DHT22;9708;53.114;9.388;2022-10-31T05:05:29;11.20;99.90
19152;DHT22;9708;53.114;9.388;2022-10-31T05:07:56;11.20;99.90
19152;DHT22;9708;53.114;9.388;2022-10-31T05:10:25;11.30;99.90
19152;DHT22;9708;53.114;9.388;2022-10-31T05:12:53;11.30;99.90
19152;DHT22;9708;53.114;9.388;2022-10-31T05:15:23;11.40;99.90
19152;DHT22;9708;53.114;9.388;2022-10-31T05:17:50;11.50;99.90
19152;DHT22;9708;53.114;9.388;2022-10-31T05:20:19;11.50;99.90
19152;DHT22;9708;53.114;9.388;2022-10-31T05:22:49;11.50;99.90
19152;DHT22;9708;53.114;9.388;2022-10-31T05:25:17;11.50;99.90
19152;DHT22;9708;53.114;9.388;2022-10-31T05:27:45;11.60;99.90
19152;DHT22;9708;53.114;9.388;2022-10-31T05:30:13;11.60;99.90
19152;DHT22;9708;53.114;9.388;2022-10-31T05:32:42;11.70;99.90
19152;DHT22;9708;53.114;9.388;2022-10-31T05:35:12;11.60;99.90
19152;DHT22;9708;53.114;9.388;2022-10-31T05:37:40;11.60;99.90
19152;DHT22;9708;53.114;9.388;2022-10-31T05:40:10;11.60;99.90
19152;DHT22;9708;53.114;9.388;2022-10-31T05:42:38;11.60;99.90
19152;DHT22;9708;53.114;9.388;2022-10-31T05:45:06;11.60;99.90
19152;DHT22;9708;53.114;9.388;2022-10-31T05:47:33;11.60;99.90
19152;DHT22;9708;53.114;9.388;2022-10-31T05:50:00;11.50;99.90
19152;DHT22;9708;53.114;9.388;2022-10-31T05:52:27;11.30;99.90
19152;DHT22;9708;53.114;9.388;2022-10-31T05:54:54;11.30;99.90
19152;DHT22;9708;53.114;9.388;2022-10-31T05:57:22;11.30;99.90
19152;DHT22;9708;53.114;9.388;2022-10-31T05:59:48;11.20;99.90
19152;DHT22;9708;53.114;9.388;2022-10-31T06:02:18;11.20;99.90
19152;DHT22;9708;53.114;9.388;2022-10-31T06:04:44;11.10;99.90
19152;DHT22;9708;53.114;9.388;2022-10-31T06:07:11;11.20;99.90
19152;DHT22;9708;53.114;9.388;2022-10-31T06:09:38;11.10;99.90
19152;DHT22;9708;53.114;9.388;2022-10-31T06:12:05;11.20;99.90
19152;DHT22;9708;53.114;9.388;2022-10-31T06:14:33;11.20;99.90
19152;DHT22;9708;53.114;9.388;2022-10-31T06:17:00;11.30;99.90
19152;DHT22;9708;53.114;9.388;2022-10-31T06:19:26;11.30;99.90
19152;DHT22;9708;53.114;9.388;2022-10-31T06:21:53;11.30;99.90
19152;DHT22;9708;53.114;9.388;2022-10-31T06:24:20;11.40;99.90
19152;DHT22;9708;53.114;9.388;2022-10-31T06:26:47;11.40;99.90
19152;DHT22;9708;53.114;9.388;2022-10-31T06:29:13;11.50;99.90
19152;DHT22;9708;53.114;9.388;2022-10-31T06:31:41;11.60;99.90
19152;DHT22;9708;53.114;9.388;2022-10-31T06:34:08;11.60;99.90
19152;DHT22;9708;53.114;9.388;2022-10-31T06:36:35;11.50;99.90
19152;DHT22;9708;53.114;9.388;2022-10-31T06:39:02;11.60;99.90
19152;DHT22;9708;53.114;9.388;2022-10-31T06:41:28;11.60;99.90
19152;DHT22;9708;53.114;9.388;2022-10-31T06:43:55;11.60;99.90
19152;DHT22;9708;53.114;9.388;2022-10-31T06:46:22;11.60;99.90
19152;DHT22;9708;53.114;9.388;2022-10-31T06:48:50;11.60;99.90
19152;DHT22;9708;53.114;9.388;2022-10-31T06:51:17;11.70;99.90
19152;DHT22;9708;53.114;9.388;2022-10-31T06:53:43;11.70;99.90
19152;DHT22;9708;53.114;9.388;2022-10-31T06:56:10;11.70;99.90
19152;DHT22;9708;53.114;9.388;2022-10-31T06:58:37;11.80;99.90
19152;DHT22;9708;53.114;9.388;2022-10-31T07:01:04;11.80;99.90
19152;DHT22;9708;53.114;9.388;2022-10-31T07:03:30;11.80;99.90
19152;DHT22;9708;53.114;9.388;2022-10-31T07:05:58;11.90;99.90
19152;DHT22;9708;53.114;9.388;2022-10-31T07:08:25;12.00;99.90
19152;DHT22;9708;53.114;9.388;2022-10-31T07:10:53;12.10;99.90
19152;DHT22;9708;53.114;9.388;2022-10-31T07:13:21;12.20;99.90
19152;DHT22;9708;53.114;9.388;2022-10-31T07:15:51;12.20;99.90
19152;DHT22;9708;53.114;9.388;2022-10-31T07:18:19;12.30;99.90
19152;DHT22;9708;53.114;9.388;2022-10-31T07:20:46;12.40;99.90
19152;DHT22;9708;53.114;9.388;2022-10-31T07:23:14;12.40;99.90
19152;DHT22;9708;53.114;9.388;2022-10-31T07:25:41;12.40;99.90
19152;DHT22;9708;53.114;9.388;2022-10-31T07:28:08;12.40;99.90
19152;DHT22;9708;53.114;9.388;2022-10-31T07:30:35;12.30;99.90
19152;DHT22;9708;53.114;9.388;2022-10-31T07:33:02;12.40;99.90
19152;DHT22;9708;53.114;9.388;2022-10-31T07:35:30;12.40;99.90
19152;DHT22;9708;53.114;9.388;2022-10-31T07:37:57;12.50;99.90
19152;DHT22;9708;53.114;9.388;2022-10-31T07:40:25;12.50;99.90
19152;DHT22;9708;53.114;9.388;2022-10-31T07:42:52;12.60;99.90
19152;DHT22;9708;53.114;9.388;2022-10-31T07:45:20;12.60;99.90
19152;DHT22;9708;53.114;9.388;2022-10-31T07:47:48;12.60;99.90
19152;DHT22;9708;53.114;9.388;2022-10-31T07:50:17;12.70;99.90
19152;DHT22;9708;53.114;9.388;2022-10-31T07:52:44;12.70;99.90
19152;DHT22;9708;53.114;9.388;2022-10-31T07:55:11;12.80;99.90
19152;DHT22;9708;53.114;9.388;2022-10-31T07:57:39;12.90;99.90
19152;DHT22;9708;53.114;9.388;2022-10-31T08:00:08;12.90;99.90
19152;DHT22;9708;53.114;9.388;2022-10-31T08:02:36;12.90;99.90
19152;DHT22;9708;53.114;9.388;2022-10-31T08:05:03;12.90;99.90
19152;DHT22;9708;53.114;9.388;2022-10-31T08:07:35;12.90;99.90
19152;DHT22;9708;53.114;9.388;2022-10-31T08:10:02;12.90;99.90
19152;DHT22;9708;53.114;9.388;2022-10-31T08:12:28;12.80;99.90
19152;DHT22;9708;53.114;9.388;2022-10-31T08:14:57;12.90;99.90
19152;DHT22;9708;53.114;9.388;2022-10-31T08:17:23;12.90;99.90
19152;DHT22;9708;53.114;9.388;2022-10-31T08:19:50;13.00;99.90
19152;DHT22;9708;53.114;9.388;2022-10-31T08:22:17;13.10;99.90
19152;DHT22;9708;53.114;9.388;2022-10-31T08:24:43;13.20;99.90
19152;DHT22;9708;53.114;9.388;2022-10-31T08:27:10;13.30;99.90
19152;DHT22;9708;53.114;9.388;2022-10-31T08:29:37;13.30;99.90
19152;DHT22;9708;53.114;9.388;2022-10-31T08:32:05;13.40;99.90
19152;DHT22;9708;53.114;9.388;2022-10-31T08:34:32;13.30;99.90
19152;DHT22;9708;53.114;9.388;2022-10-31T08:36:58;13.30;99.90
19152;DHT22;9708;53.114;9.388;2022-10-31T08:39:25;13.40;99.90
19152;DHT22;9708;53.114;9.388;2022-10-31T08:41:52;13.60;99.90
19152;DHT22;9708;53.114;9.388;2022-10-31T08:44:19;13.80;99.90
19152;DHT22;9708;53.114;9.388;2022-10-31T08:46:45;13.90;99.90
19152;DHT22;9708;53.114;9.388;2022-10-31T08:49:13;13.80;99.90
19152;DHT22;9708;53.114;9.388;2022-10-31T08:51:40;13.80;99.90
19152;DHT22;9708;53.114;9.388;2022-10-31T08:54:07;13.80;99.90
19152;DHT22;9708;53.114;9.388;2022-10-31T08:56:34;13.90;99.90
19152;DHT22;9708;53.114;9.388;2022-10-31T08:59:00;14.10;99.90
19152;DHT22;9708;53.114;9.388;2022-10-31T09:01:27;13.90;99.90
19152;DHT22;9708;53.114;9.388;2022-10-31T09:03:54;13.70;99.90
19152;DHT22;9708;53.114;9.388;2022-10-31T09:06:22;13.60;99.90
19152;DHT22;9708;53.114;9.388;2022-10-31T09:08:49;13.60;99.90
19152;DHT22;9708;53.114;9.388;2022-10-31T09:11:15;13.50;99.90
19152;DHT22;9708;53.114;9.388;2022-10-31T09:13:42;13.50;99.90
19152;DHT22;9708;53.114;9.388;2022-10-31T09:16:09;13.60;99.90
19152;DHT22;9708;53.114;9.388;2022-10-31T09:18:36;13.60;99.90
19152;DHT22;9708;53.114;9.388;2022-10-31T09:21:03;13.60;99.90
19152;DHT22;9708;53.114;9.388;2022-10-31T09:23:31;13.60;99.90
19152;DHT22;9708;53.114;9.388;2022-10-31T09:25:59;13.60;99.90
19152;DHT22;9708;53.114;9.388;2022-10-31T09:28:26;13.80;99.90
19152;DHT22;9708;53.114;9.388;2022-10-31T09:30:53;13.90;99.90
19152;DHT22;9708;53.114;9.388;2022-10-31T09:33:21;13.90;99.90
19152;DHT22;9708;53.114;9.388;2022-10-31T09:35:48;13.80;99.90
19152;DHT22;9708;53.114;9.388;2022-10-31T09:38:16;13.80;99.90
19152;DHT22;9708;53.114;9.388;2022-10-31T09:40:47;13.90;99.90
19152;DHT22;9708;53.114;9.388;2022-10-31T09:43:21;14.00;99.90
19152;DHT22;9708;53.114;9.388;2022-10-31T09:45:56;13.90;99.90
19152;DHT22;9708;53.114;9.388;2022-10-31T09:48:41;13.80;99.90
19152;DHT22;9708;53.114;9.388;2022-10-31T09:51:13;13.90;99.90
19152;DHT22;9708;53.114;9.388;2022-10-31T09:53:45;13.90;99.90
19152;DHT22;9708;53.114;9.388;2022-10-31T09:56:17;13.90;99.90
19152;DHT22;9708;53.114;9.388;2022-10-31T09:58:47;14.10;99.90
19152;DHT22;9708;53.114;9.388;2022-10-31T10:01:23;14.30;99.90
19152;DHT22;9708;53.114;9.388;2022-10-31T10:03:56;14.40;99.90
19152;DHT22;9708;53.114;9.388;2022-10-31T10:06:27;14.40;99.90
19152;DHT22;9708;53.114;9.388;2022-10-31T10:08:55;14.50;99.90
19152;DHT22;9708;53.114;9.388;2022-10-31T10:11:45;14.40;99.90
19152;DHT22;9708;53.114;9.388;2022-10-31T10:14:25;14.50;99.90
19152;DHT22;9708;53.114;9.388;2022-10-31T10:17:13;14.70;99.90
19152;DHT22;9708;53.114;9.388;2022-10-31T10:20:15;14.70;99.90
19152;DHT22;9708;53.114;9.388;2022-10-31T10:22:47;14.70;99.90
19152;DHT22;9708;53.114;9.388;2022-10-31T10:25:21;14.70;99.90
19152;DHT22;9708;53.114;9.388;2022-10-31T10:28:04;14.70;99.90
19152;DHT22;9708;53.114;9.388;2022-10-31T10:30:38;14.70;99.90
19152;DHT22;9708;53.114;9.388;2022-10-31T10:33:10;14.70;99.90
19152;DHT22;9708;53.114;9.388;2022-10-31T10:35:41;14.70;99.90
19152;DHT22;9708;53.114;9.388;2022-10-31T10:38:15;14.70;99.90
19152;DHT22;9708;53.114;9.388;2022-10-31T10:40:42;14.80;99.90
19152;DHT22;9708;53.114;9.388;2022-10-31T10:43:21;14.90;99.90
19152;DHT22;9708;53.114;9.388;2022-10-31T10:45:55;14.80;99.90
19152;DHT22;9708;53.114;9.388;2022-10-31T10:48:43;14.80;99.90
19152;DHT22;9708;53.114;9.388;2022-10-31T10:51:20;14.80;99.90
19152;DHT22;9708;53.114;9.388;2022-10-31T10:54:10;15.10;99.90
19152;DHT22;9708;53.114;9.388;2022-10-31T10:56:49;15.10;99.90
19152;DHT22;9708;53.114;9.388;2022-10-31T10:59:21;15.10;99.90
19152;DHT22;9708;53.114;9.388;2022-10-31T11:01:49;15.10;99.90
19152;DHT22;9708;53.114;9.388;2022-10-31T11:04:30;15.00;99.90
19152;DHT22;9708;53.114;9.388;2022-10-31T11:06:59;15.20;99.90
19152;DHT22;9708;53.114;9.388;2022-10-31T11:09:26;15.40;99.90
19152;DHT22;9708;53.114;9.388;2022-10-31T11:11:54;15.50;99.90
19152;DHT22;9708;53.114;9.388;2022-10-31T11:14:23;15.80;99.90
19152;DHT22;9708;53.114;9.388;2022-10-31T11:16:54;16.10;99.90
19152;DHT22;9708;53.114;9.388;2022-10-31T11:19:23;16.20;99.90
19152;DHT22;9708;53.114;9.388;2022-10-31T11:21:51;16.10;99.90
19152;DHT22;9708;53.114;9.388;2022-10-31T11:24:20;16.20;99.90
19152;DHT22;9708;53.114;9.388;2022-10-31T11:26:49;16.40;99.90
19152;DHT22;9708;53.114;9.388;2022-10-31T11:29:20;16.40;99.90
19152;DHT22;9708;53.114;9.388;2022-10-31T11:31:52;16.50;99.90
19152;DHT22;9708;53.114;9.388;2022-10-31T11:34:37;16.60;99.90
19152;DHT22;9708;53.114;9.388;2022-10-31T11:37:09;17.00;99.90
19152;DHT22;9708;53.114;9.388;2022-10-31T11:39:41;16.90;99.90
19152;DHT22;9708;53.114;9.388;2022-10-31T11:42:10;16.80;99.90
19152;DHT22;9708;53.114;9.388;2022-10-31T11:44:41;16.80;99.90
19152;DHT22;9708;53.114;9.388;2022-10-31T11:47:14;17.60;99.90
19152;DHT22;9708;53.114;9.388;2022-10-31T11:49:43;17.80;99.90
19152;DHT22;9708;53.114;9.388;2022-10-31T11:52:14;17.90;99.90
19152;DHT22;9708;53.114;9.388;2022-10-31T11:54:46;17.80;99.90
19152;DHT22;9708;53.114;9.388;2022-10-31T11:57:25;17.40;99.90
19152;DHT22;9708;53.114;9.388;2022-10-31T11:59:53;17.30;99.90
19152;DHT22;9708;53.114;9.388;2022-10-31T12:02:22;17.00;99.90
19152;DHT22;9708;53.114;9.388;2022-10-31T12:04:58;16.80;99.90
19152;DHT22;9708;53.114;9.388;2022-10-31T12:07:26;16.60;99.90
19152;DHT22;9708;53.114;9.388;2022-10-31T12:09:53;16.60;99.90
19152;DHT22;9708;53.114;9.388;2022-10-31T12:12:38;16.80;99.90
19152;DHT22;9708;53.114;9.388;2022-10-31T12:15:20;16.40;99.90
19152;DHT22;9708;53.114;9.388;2022-10-31T12:17:54;16.30;99.90
19152;DHT22;9708;53.114;9.388;2022-10-31T12:20:28;16.20;99.90
19152;DHT22;9708;53.114;9.388;2022-10-31T12:23:03;16.20;99.90
19152;DHT22;9708;53.114;9.388;2022-10-31T12:25:39;16.30;99.90
19152;DHT22;9708;53.114;9.388;2022-10-31T12:28:26;16.40;99.90
19152;DHT22;9708;53.114;9.388;2022-10-31T12:31:03;16.50;99.90
19152;DHT22;9708;53.114;9.388;2022-10-31T12:33:47;16.30;99.90
19152;DHT22;9708;53.114;9.388;2022-10-31T12:36:36;16.20;99.90
19152;DHT22;9708;53.114;9.388;2022-10-31T12:39:29;16.10;99.90
19152;DHT22;9708;53.114;9.388;2022-10-31T12:42:08;15.80;99.90
19152;DHT22;9708;53.114;9.388;2022-10-31T12:44:55;16.00;99.90
19152;DHT22;9708;53.114;9.388;2022-10-31T12:47:44;15.90;99.90
19152;DHT22;9708;53.114;9.388;2022-10-31T12:50:28;15.80;99.90
19152;DHT22;9708;53.114;9.388;2022-10-31T12:53:04;15.90;99.90
19152;DHT22;9708;53.114;9.388;2022-10-31T12:55:44;15.90;99.90
19152;DHT22;9708;53.114;9.388;2022-10-31T12:58:19;16.00;99.90
19152;DHT22;9708;53.114;9.388;2022-10-31T13:00:50;15.90;99.90
19152;DHT22;9708;53.114;9.388;2022-10-31T13:03:23;15.60;99.90
19152;DHT22;9708;53.114;9.388;2022-10-31T13:05:56;15.60;99.90
19152;DHT22;9708;53.114;9.388;2022-10-31T13:08:28;15.50;99.90
19152;DHT22;9708;53.114;9.388;2022-10-31T13:11:02;15.60;99.90
19152;DHT22;9708;53.114;9.388;2022-10-31T13:13:33;15.40;99.90
19152;DHT22;9708;53.114;9.388;2022-10-31T13:16:13;15.20;99.90
19152;DHT22;9708;53.114;9.388;2022-10-31T13:18:44;15.10;99.90
19152;DHT22;9708;53.114;9.388;2022-10-31T13:21:18;15.30;99.90
19152;DHT22;9708;53.114;9.388;2022-10-31T13:23:49;15.30;99.90
19152;DHT22;9708;53.114;9.388;2022-10-31T13:26:23;15.30;99.90
19152;DHT22;9708;53.114;9.388;2022-10-31T13:28:56;15.30;99.90
19152;DHT22;9708;53.114;9.388;2022-10-31T13:31:23;15.60;99.90
19152;DHT22;9708;53.114;9.388;2022-10-31T13:33:53;15.70;99.90
19152;DHT22;9708;53.114;9.388;2022-10-31T13:36:28;15.40;99.90
19152;DHT22;9708;53.114;9.388;2022-10-31T13:39:04;15.40;99.90
19152;DHT22;9708;53.114;9.388;2022-10-31T13:41:43;15.60;99.90
19152;DHT22;9708;53.114;9.388;2022-10-31T13:44:15;15.70;99.90
19152;DHT22;9708;53.114;9.388;2022-10-31T13:46:43;15.60;99.90
19152;DHT22;9708;53.114;9.388;2022-10-31T13:49:24;15.40;99.90
19152;DHT22;9708;53.114;9.388;2022-10-31T13:51:52;15.40;99.90
19152;DHT22;9708;53.114;9.388;2022-10-31T13:54:22;15.50;99.90
19152;DHT22;9708;53.114;9.388;2022-10-31T13:56:50;15.50;99.90
19152;DHT22;9708;53.114;9.388;2022-10-31T13:59:19;15.40;99.90
19152;DHT22;9708;53.114;9.388;2022-10-31T14:01:49;15.30;99.90
19152;DHT22;9708;53.114;9.388;2022-10-31T14:04:19;15.30;99.90
19152;DHT22;9708;53.114;9.388;2022-10-31T14:06:55;15.30;99.90
19152;DHT22;9708;53.114;9.388;2022-10-31T14:09:27;15.30;99.90
19152;DHT22;9708;53.114;9.388;2022-10-31T14:11:55;15.30;99.90
19152;DHT22;9708;53.114;9.388;2022-10-31T14:14:26;15.40;99.90
19152;DHT22;9708;53.114;9.388;2022-10-31T14:16:56;15.30;99.90
19152;DHT22;9708;53.114;9.388;2022-10-31T14:19:24;15.40;99.90
19152;DHT22;9708;53.114;9.388;2022-10-31T14:21:52;15.30;99.90
19152;DHT22;9708;53.114;9.388;2022-10-31T14:24:36;15.30;99.90
19152;DHT22;9708;53.114;9.388;2022-10-31T14:29:46;15.40;99.90
19152;DHT22;9708;53.114;9.388;2022-10-31T14:32:20;15.40;99.90
19152;DHT22;9708;53.114;9.388;2022-10-31T14:34:53;15.60;99.90
19152;DHT22;9708;53.114;9.388;2022-10-31T14:37:34;15.60;99.90
19152;DHT22;9708;53.114;9.388;2022-10-31T14:40:21;15.50;99.90
19152;DHT22;9708;53.114;9.388;2022-10-31T14:43:22;15.30;99.90
19152;DHT22;9708;53.114;9.388;2022-10-31T14:45:59;15.30;99.90
19152;DHT22;9708;53.114;9.388;2022-10-31T14:48:54;15.40;99.90
19152;DHT22;9708;53.114;9.388;2022-10-31T14:51:26;15.30;99.90
19152;DHT22;9708;53.114;9.388;2022-10-31T14:53:56;15.20;99.90
19152;DHT22;9708;53.114;9.388;2022-10-31T14:56:27;15.10;99.90
19152;DHT22;9708;53.114;9.388;2022-10-31T14:58:57;15.00;99.90
19152;DHT22;9708;53.114;9.388;2022-10-31T15:01:28;14.80;99.90
19152;DHT22;9708;53.114;9.388;2022-10-31T15:04:00;14.80;99.90
19152;DHT22;9708;53.114;9.388;2022-10-31T15:06:31;14.70;99.90
19152;DHT22;9708;53.114;9.388;2022-10-31T15:09:04;14.70;99.90
19152;DHT22;9708;53.114;9.388;2022-10-31T15:11:40;14.70;99.90
19152;DHT22;9708;53.114;9.388;2022-10-31T15:14:22;14.90;99.90
19152;DHT22;9708;53.114;9.388;2022-10-31T15:16:49;14.80;99.90
19152;DHT22;9708;53.114;9.388;2022-10-31T15:19:21;14.60;99.90
19152;DHT22;9708;53.114;9.388;2022-10-31T15:21:50;14.50;99.90
19152;DHT22;9708;53.114;9.388;2022-10-31T15:24:19;14.50;99.90
19152;DHT22;9708;53.114;9.388;2022-10-31T15:26:52;14.50;99.90
19152;DHT22;9708;53.114;9.388;2022-10-31T15:29:21;14.50;99.90
19152;DHT22;9708;53.114;9.388;2022-10-31T15:31:52;14.60;99.90
19152;DHT22;9708;53.114;9.388;2022-10-31T15:34:22;14.50;99.90
19152;DHT22;9708;53.114;9.388;2022-10-31T15:36:52;14.50;99.90
19152;DHT22;9708;53.114;9.388;2022-10-31T15:39:19;14.40;99.90
19152;DHT22;9708;53.114;9.388;2022-10-31T15:41:51;14.40;99.90
19152;DHT22;9708;53.114;9.388;2022-10-31T15:44:23;14.40;99.90
19152;DHT22;9708;53.114;9.388;2022-10-31T15:46:55;14.40;99.90
19152;DHT22;9708;53.114;9.388;2022-10-31T15:49:29;14.40;99.90
19152;DHT22;9708;53.114;9.388;2022-10-31T15:52:03;14.50;99.90
19152;DHT22;9708;53.114;9.388;2022-10-31T15:54:30;14.50;99.90
19152;DHT22;9708;53.114;9.388;2022-10-31T15:56:59;14.50;99.90
19152;DHT22;9708;53.114;9.388;2022-10-31T15:59:27;14.40;99.90
19152;DHT22;9708;53.114;9.388;2022-10-31T16:02:00;14.50;99.90
19152;DHT22;9708;53.114;9.388;2022-10-31T16:04:27;14.40;99.90
19152;DHT22;9708;53.114;9.388;2022-10-31T16:06:59;14.30;99.90
19152;DHT22;9708;53.114;9.388;2022-10-31T16:09:27;14.40;99.90
19152;DHT22;9708;53.114;9.388;2022-10-31T16:11:56;14.50;99.90
19152;DHT22;9708;53.114;9.388;2022-10-31T16:14:27;14.60;99.90
19152;DHT22;9708;53.114;9.388;2022-10-31T16:16:56;14.60;99.90
19152;DHT22;9708;53.114;9.388;2022-10-31T16:19:27;14.50;99.90
19152;DHT22;9708;53.114;9.388;2022-10-31T16:21:56;14.60;99.90
19152;DHT22;9708;53.114;9.388;2022-10-31T16:24:31;14.50;99.90
19152;DHT22;9708;53.114;9.388;2022-10-31T16:27:03;14.50;99.90
19152;DHT22;9708;53.114;9.388;2022-10-31T16:29:38;14.50;99.90
19152;DHT22;9708;53.114;9.388;2022-10-31T16:32:24;14.50;99.90
19152;DHT22;9708;53.114;9.388;2022-10-31T16:34:58;14.40;99.90
19152;DHT22;9708;53.114;9.388;2022-10-31T16:37:24;14.30;99.90
19152;DHT22;9708;53.114;9.388;2022-10-31T16:39:51;14.20;99.90
19152;DHT22;9708;53.114;9.388;2022-10-31T16:42:18;14.20;99.90
19152;DHT22;9708;53.114;9.388;2022-10-31T16:44:47;14.40;99.90
19152;DHT22;9708;53.114;9.388;2022-10-31T16:47:16;14.40;99.90
19152;DHT22;9708;53.114;9.388;2022-10-31T16:49:46;14.30;99.90
19152;DHT22;9708;53.114;9.388;2022-10-31T16:52:13;14.40;99.90
19152;DHT22;9708;53.114;9.388;2022-10-31T16:54:39;14.40;99.90
19152;DHT22;9708;53.114;9.388;2022-10-31T16:57:06;14.40;99.90
19152;DHT22;9708;53.114;9.388;2022-10-31T16:59:37;14.30;99.90
19152;DHT22;9708;53.114;9.388;2022-10-31T17:02:08;14.30;99.90
19152;DHT22;9708;53.114;9.388;2022-10-31T17:04:36;14.20;99.90
19152;DHT22;9708;53.114;9.388;2022-10-31T17:07:03;14.20;99.90
19152;DHT22;9708;53.114;9.388;2022-10-31T17:09:30;14.10;99.90
19152;DHT22;9708;53.114;9.388;2022-10-31T17:11:57;14.00;99.90
19152;DHT22;9708;53.114;9.388;2022-10-31T17:14:24;14.00;99.90
19152;DHT22;9708;53.114;9.388;2022-10-31T17:16:51;13.90;99.90
19152;DHT22;9708;53.114;9.388;2022-10-31T17:19:19;13.90;99.90
19152;DHT22;9708;53.114;9.388;2022-10-31T17:21:46;13.90;99.90
19152;DHT22;9708;53.114;9.388;2022-10-31T17:24:13;13.90;99.90
19152;DHT22;9708;53.114;9.388;2022-10-31T17:26:41;13.90;99.90
19152;DHT22;9708;53.114;9.388;2022-10-31T17:29:08;13.90;99.90
19152;DHT22;9708;53.114;9.388;2022-10-31T17:31:35;13.90;99.90
19152;DHT22;9708;53.114;9.388;2022-10-31T17:34:03;13.80;99.90
19152;DHT22;9708;53.114;9.388;2022-10-31T17:36:33;13.80;99.90
19152;DHT22;9708;53.114;9.388;2022-10-31T17:39:00;13.80;99.90
19152;DHT22;9708;53.114;9.388;2022-10-31T17:41:27;13.80;99.90
19152;DHT22;9708;53.114;9.388;2022-10-31T17:43:54;13.80;99.90
19152;DHT22;9708;53.114;9.388;2022-10-31T17:46:24;13.80;99.90
19152;DHT22;9708;53.114;9.388;2022-10-31T17:48:52;13.90;99.90
19152;DHT22;9708;53.114;9.388;2022-10-31T17:51:18;13.90;99.90
19152;DHT22;9708;53.114;9.388;2022-10-31T17:53:46;14.00;99.90
19152;DHT22;9708;53.114;9.388;2022-10-31T17:56:13;14.00;99.90
19152;DHT22;9708;53.114;9.388;2022-10-31T17:58:40;14.10;99.90
19152;DHT22;9708;53.114;9.388;2022-10-31T18:01:08;14.20;99.90
19152;DHT22;9708;53.114;9.388;2022-10-31T18:03:35;14.20;99.90
19152;DHT22;9708;53.114;9.388;2022-10-31T18:06:02;14.10;99.90
19152;DHT22;9708;53.114;9.388;2022-10-31T18:08:32;14.10;99.90
19152;DHT22;9708;53.114;9.388;2022-10-31T18:11:05;14.20;99.90
19152;DHT22;9708;53.114;9.388;2022-10-31T18:13:34;14.20;99.90
19152;DHT22;9708;53.114;9.388;2022-10-31T18:16:01;14.20;99.90
19152;DHT22;9708;53.114;9.388;2022-10-31T18:18:27;14.20;99.90
19152;DHT22;9708;53.114;9.388;2022-10-31T18:20:56;14.20;99.90
19152;DHT22;9708;53.114;9.388;2022-10-31T18:23:23;14.10;99.90
19152;DHT22;9708;53.114;9.388;2022-10-31T18:25:49;14.10;99.90
19152;DHT22;9708;53.114;9.388;2022-10-31T18:28:18;14.00;99.90
19152;DHT22;9708;53.114;9.388;2022-10-31T18:30:44;14.10;99.90
19152;DHT22;9708;53.114;9.388;2022-10-31T18:33:11;14.00;99.90
19152;DHT22;9708;53.114;9.388;2022-10-31T18:35:41;14.00;99.90
19152;DHT22;9708;53.114;9.388;2022-10-31T18:38:08;14.00;99.90
19152;DHT22;9708;53.114;9.388;2022-10-31T18:40:35;14.10;99.90
19152;DHT22;9708;53.114;9.388;2022-10-31T18:43:02;14.00;99.90
19152;DHT22;9708;53.114;9.388;2022-10-31T18:45:30;14.00;99.90
19152;DHT22;9708;53.114;9.388;2022-10-31T18:47:57;14.00;99.90
19152;DHT22;9708;53.114;9.388;2022-10-31T18:50:24;14.00;99.90
19152;DHT22;9708;53.114;9.388;2022-10-31T18:52:50;14.00;99.90
19152;DHT22;9708;53.114;9.388;2022-10-31T18:55:17;13.90;99.90
19152;DHT22;9708;53.114;9.388;2022-10-31T18:57:44;13.90;99.90
19152;DHT22;9708;53.114;9.388;2022-10-31T19:00:11;13.90;99.90
19152;DHT22;9708;53.114;9.388;2022-10-31T19:02:40;13.90;99.90
19152;DHT22;9708;53.114;9.388;2022-10-31T19:05:07;13.80;99.90
19152;DHT22;9708;53.114;9.388;2022-10-31T19:07:34;13.70;99.90
19152;DHT22;9708;53.114;9.388;2022-10-31T19:10:01;13.80;99.90
19152;DHT22;9708;53.114;9.388;2022-10-31T19:12:29;13.80;99.90
19152;DHT22;9708;53.114;9.388;2022-10-31T19:14:56;13.80;99.90
19152;DHT22;9708;53.114;9.388;2022-10-31T19:17:23;13.90;99.90
19152;DHT22;9708;53.114;9.388;2022-10-31T19:19:51;13.90;99.90
19152;DHT22;9708;53.114;9.388;2022-10-31T19:22:18;13.90;99.90
19152;DHT22;9708;53.114;9.388;2022-10-31T19:24:45;13.90;99.90
19152;DHT22;9708;53.114;9.388;2022-10-31T19:27:11;13.80;99.90
19152;DHT22;9708;53.114;9.388;2022-10-31T19:29:38;13.80;99.90
19152;DHT22;9708;53.114;9.388;2022-10-31T19:32:06;13.80;99.90
19152;DHT22;9708;53.114;9.388;2022-10-31T19:34:33;14.00;99.90
19152;DHT22;9708;53.114;9.388;2022-10-31T19:37:01;13.90;99.90
19152;DHT22;9708;53.114;9.388;2022-10-31T19:39:28;13.80;99.90
19152;DHT22;9708;53.114;9.388;2022-10-31T19:41:55;13.80;99.90
19152;DHT22;9708;53.114;9.388;2022-10-31T19:44:22;13.70;99.90
19152;DHT22;9708;53.114;9.388;2022-10-31T19:46:49;13.70;99.90
19152;DHT22;9708;53.114;9.388;2022-10-31T19:49:15;13.80;99.90